createdAt,value
2023-05-18T00:02:22.158Z,47.45
2023-05-18T00:04:48.749Z,47.33
2023-05-18T00:07:16.332Z,47.23
2023-05-18T00:09:42.858Z,47.39
2023-05-18T00:12:09.356Z,47.12
2023-05-18T00:14:35.876Z,47.32
2023-05-18T00:17:02.432Z,47.09
2023-05-18T00:19:29.007Z,47.15
2023-05-18T00:21:55.538Z,47.34
2023-05-18T00:24:22.100Z,47.23
2023-05-18T00:26:48.673Z,47.30
2023-05-18T00:29:15.211Z,46.98
2023-05-18T00:31:41.769Z,47.03
2023-05-18T00:34:11.433Z,47.23
2023-05-18T00:36:37.959Z,47.16
2023-05-18T00:39:04.576Z,47.33
2023-05-18T00:41:31.104Z,46.99
2023-05-18T00:43:57.606Z,47.45
2023-05-18T00:46:24.206Z,47.25
2023-05-18T00:48:50.897Z,47.29
2023-05-18T00:51:17.454Z,47.03
2023-05-18T00:53:44.241Z,47.04
2023-05-18T00:56:10.878Z,47.17
2023-05-18T00:58:37.523Z,47.00
2023-05-18T01:01:04.183Z,47.28
2023-05-18T01:03:30.792Z,47.28
2023-05-18T01:05:57.398Z,47.05
2023-05-18T01:08:23.923Z,47.22
2023-05-18T01:10:50.589Z,47.03
2023-05-18T01:13:17.062Z,47.16
2023-05-18T01:15:43.593Z,46.82
2023-05-18T01:18:10.345Z,46.96
2023-05-18T01:20:37.021Z,47.32
2023-05-18T01:23:04.650Z,46.96
2023-05-18T01:25:32.465Z,47.45
2023-05-18T01:27:58.985Z,47.19
2023-05-18T01:30:25.443Z,46.89
2023-05-18T01:32:51.921Z,47.26
2023-05-18T01:35:18.386Z,46.97
2023-05-18T01:37:44.927Z,47.09
2023-05-18T01:40:11.436Z,46.91
2023-05-18T01:42:37.914Z,47.09
2023-05-18T01:45:04.436Z,47.11
2023-05-18T01:47:31.018Z,47.13
2023-05-18T01:49:57.519Z,47.28
2023-05-18T01:52:24.148Z,46.81
2023-05-18T01:54:50.739Z,47.13
2023-05-18T01:57:17.358Z,46.64
2023-05-18T01:59:43.966Z,46.97
2023-05-18T02:02:10.546Z,47.39
2023-05-18T02:04:37.125Z,47.17
2023-05-18T02:07:03.839Z,47.29
2023-05-18T02:09:30.424Z,47.27
2023-05-18T02:11:56.967Z,47.09
2023-05-18T02:14:23.555Z,47.21
2023-05-18T02:16:50.129Z,47.13
2023-05-18T02:19:16.725Z,47.01
2023-05-18T02:21:43.356Z,46.95
2023-05-18T02:24:09.846Z,47.21
2023-05-18T02:26:36.460Z,46.98
2023-05-18T02:29:03.078Z,47.12
2023-05-18T02:31:29.805Z,46.89
2023-05-18T02:33:56.427Z,47.29
2023-05-18T02:36:22.998Z,47.26
2023-05-18T02:38:49.493Z,47.09
2023-05-18T02:41:15.998Z,46.92
2023-05-18T02:43:42.592Z,46.96
2023-05-18T02:46:09.154Z,47.03
2023-05-18T02:48:35.747Z,47.16
2023-05-18T02:51:02.266Z,47.07
2023-05-18T02:53:28.845Z,47.02
2023-05-18T02:55:55.442Z,46.94
2023-05-18T02:58:22.017Z,47.26
2023-05-18T03:00:48.623Z,47.34
2023-05-18T03:03:15.305Z,47.25
2023-05-18T03:05:41.903Z,46.94
2023-05-18T03:08:08.489Z,47.27
2023-05-18T03:10:35.119Z,47.02
2023-05-18T03:13:01.670Z,47.20
2023-05-18T03:15:28.353Z,47.19
2023-05-18T03:17:55.276Z,47.19
2023-05-18T03:20:21.963Z,47.16
2023-05-18T03:22:48.606Z,47.06
2023-05-18T03:25:15.136Z,47.25
2023-05-18T03:27:41.655Z,47.11
2023-05-18T03:30:08.212Z,47.06
2023-05-18T03:32:34.830Z,47.15
2023-05-18T03:35:01.399Z,46.73
2023-05-18T03:37:27.987Z,47.19
2023-05-18T03:39:54.555Z,46.97
2023-05-18T03:42:21.098Z,46.97
2023-05-18T03:44:47.665Z,47.04
2023-05-18T03:47:14.247Z,47.13
2023-05-18T03:49:40.750Z,47.19
2023-05-18T03:52:07.297Z,47.02
2023-05-18T03:54:33.944Z,46.98
2023-05-18T03:57:00.470Z,47.24
2023-05-18T03:59:27.032Z,47.35
2023-05-18T04:01:53.710Z,46.92
2023-05-18T04:04:20.453Z,47.01
2023-05-18T04:06:46.991Z,47.17
2023-05-18T04:09:13.499Z,47.05
2023-05-18T04:11:40.047Z,46.87
2023-05-18T04:14:06.622Z,46.88
2023-05-18T04:16:33.296Z,47.11
2023-05-18T04:18:59.968Z,46.82
2023-05-18T04:21:26.524Z,46.87
2023-05-18T04:23:53.135Z,46.98
2023-05-18T04:26:19.656Z,46.69
2023-05-18T04:28:46.234Z,46.55
2023-05-18T04:31:12.800Z,46.68
2023-05-18T04:33:39.322Z,46.90
2023-05-18T04:36:05.842Z,46.88
2023-05-18T04:38:32.399Z,46.66
2023-05-18T04:40:58.868Z,46.66
2023-05-18T04:43:25.399Z,46.97
2023-05-18T04:45:51.971Z,46.82
2023-05-18T04:48:18.434Z,46.37
2023-05-18T04:50:44.961Z,46.09
2023-05-18T04:53:12.506Z,45.87
2023-05-18T04:55:39.067Z,46.00
2023-05-18T04:58:05.608Z,45.40
2023-05-18T05:00:32.069Z,45.44
2023-05-18T05:02:58.717Z,48.07
2023-05-18T05:05:25.431Z,48.11
2023-05-18T05:07:51.945Z,48.66
2023-05-18T05:10:18.561Z,47.97
2023-05-18T05:12:46.456Z,48.26
2023-05-18T05:15:14.482Z,47.49
2023-05-18T05:17:41.022Z,47.41
2023-05-18T05:20:07.500Z,47.18
2023-05-18T05:22:33.992Z,46.96
2023-05-18T05:25:00.478Z,47.38
2023-05-18T05:27:27.247Z,47.81
2023-05-18T05:29:53.706Z,48.22
2023-05-18T05:32:20.280Z,48.27
2023-05-18T05:34:46.774Z,48.09
2023-05-18T05:37:13.274Z,48.30
2023-05-18T05:39:39.722Z,48.31
2023-05-18T05:42:06.179Z,48.07
2023-05-18T05:44:32.709Z,48.16
2023-05-18T05:46:59.259Z,47.87
2023-05-18T05:49:26.370Z,48.04
2023-05-18T05:51:52.845Z,48.35
2023-05-18T05:54:19.322Z,47.85
2023-05-18T05:56:45.840Z,47.83
2023-05-18T05:59:12.294Z,47.97
2023-05-18T06:01:38.768Z,48.03
2023-05-18T06:04:05.399Z,47.91
2023-05-18T06:06:31.962Z,47.91
2023-05-18T06:08:58.431Z,47.92
2023-05-18T06:11:24.907Z,47.78
2023-05-18T06:13:51.476Z,47.99
2023-05-18T06:16:18.108Z,48.11
2023-05-18T06:18:44.731Z,47.94
2023-05-18T06:21:11.212Z,47.84
2023-05-18T06:23:39.480Z,47.88
2023-05-18T06:26:07.509Z,47.95
2023-05-18T06:28:34.083Z,47.89
2023-05-18T06:31:00.561Z,47.88
2023-05-18T06:33:27.089Z,47.72
2023-05-18T06:35:53.588Z,47.74
2023-05-18T06:38:20.103Z,47.27
2023-05-18T06:40:46.648Z,47.33
2023-05-18T06:43:13.172Z,47.70
2023-05-18T06:45:39.740Z,47.66
2023-05-18T06:48:06.325Z,47.58
2023-05-18T06:50:32.855Z,47.61
2023-05-18T06:52:59.389Z,47.56
2023-05-18T06:55:25.905Z,47.56
2023-05-18T06:57:52.419Z,47.21
2023-05-18T07:00:18.918Z,47.33
2023-05-18T07:02:45.427Z,47.37
2023-05-18T07:05:12.002Z,47.40
2023-05-18T07:07:38.474Z,47.56
2023-05-18T07:10:05.025Z,47.03
2023-05-18T07:12:31.541Z,46.56
2023-05-18T07:14:58.165Z,46.35
2023-05-18T07:17:24.703Z,48.81
2023-05-18T07:19:51.232Z,49.32
2023-05-18T07:22:17.772Z,49.59
2023-05-18T07:24:44.250Z,49.36
2023-05-18T07:27:10.703Z,49.77
2023-05-18T07:29:37.214Z,49.65
2023-05-18T07:32:03.696Z,50.15
2023-05-18T07:34:30.208Z,50.35
2023-05-18T07:36:56.755Z,50.58
2023-05-18T07:39:23.238Z,50.50
2023-05-18T07:41:49.771Z,50.33
2023-05-18T07:44:16.265Z,50.43
2023-05-18T07:46:42.892Z,49.78
2023-05-18T07:49:09.414Z,49.97
2023-05-18T07:51:36.000Z,50.09
2023-05-18T07:54:02.496Z,50.12
2023-05-18T07:56:29.016Z,50.02
2023-05-18T07:58:56.156Z,49.81
2023-05-18T08:01:22.657Z,49.57
2023-05-18T08:03:49.351Z,49.86
2023-05-18T08:06:15.949Z,49.87
2023-05-18T08:08:42.483Z,49.99
2023-05-18T08:11:08.941Z,50.13
2023-05-18T08:13:35.487Z,49.65
2023-05-18T08:16:11.025Z,49.91
2023-05-18T08:18:39.023Z,49.70
2023-05-18T08:21:05.566Z,49.71
2023-05-18T08:23:32.007Z,49.65
2023-05-18T08:25:58.536Z,49.58
2023-05-18T08:28:24.976Z,49.59
2023-05-18T08:30:51.462Z,49.37
2023-05-18T08:33:18.024Z,49.05
2023-05-18T08:35:44.547Z,49.39
2023-05-18T08:38:11.034Z,49.19
2023-05-18T08:40:37.486Z,49.27
2023-05-18T08:43:04.046Z,49.31
2023-05-18T08:45:30.771Z,49.14
2023-05-18T08:47:57.665Z,49.39
2023-05-18T08:50:24.566Z,48.91
2023-05-18T08:52:51.182Z,48.99
2023-05-18T08:55:17.893Z,48.82
2023-05-18T08:57:44.550Z,48.79
2023-05-18T09:00:11.135Z,48.64
2023-05-18T09:02:37.737Z,48.19
2023-05-18T09:05:04.247Z,48.35
2023-05-18T09:07:30.815Z,48.33
2023-05-18T09:09:57.318Z,48.21
2023-05-18T09:12:24.773Z,48.33
2023-05-18T09:14:51.419Z,48.14
2023-05-18T09:17:17.902Z,48.11
2023-05-18T09:19:44.460Z,48.15
2023-05-18T09:22:10.985Z,48.23
2023-05-18T09:24:37.485Z,48.02
2023-05-18T09:27:04.212Z,47.85
2023-05-18T09:29:32.304Z,47.89
2023-05-18T09:32:00.166Z,47.75
2023-05-18T09:34:26.969Z,47.68
2023-05-18T09:36:53.568Z,48.07
2023-05-18T09:39:20.132Z,47.84
2023-05-18T09:41:49.823Z,47.85
2023-05-18T09:44:16.334Z,48.11
2023-05-18T09:46:42.873Z,48.15
2023-05-18T09:49:09.602Z,47.79
2023-05-18T09:51:39.003Z,47.94
2023-05-18T09:54:05.544Z,47.49
2023-05-18T09:56:32.128Z,47.38
2023-05-18T09:58:58.637Z,47.62
2023-05-18T10:01:25.287Z,47.54
2023-05-18T10:03:51.834Z,47.58
2023-05-18T10:06:18.372Z,47.53
2023-05-18T10:08:44.883Z,46.95
2023-05-18T10:11:11.337Z,46.92
2023-05-18T10:13:37.866Z,46.60
2023-05-18T10:16:04.315Z,46.85
2023-05-18T10:18:30.938Z,46.44
2023-05-18T10:20:59.853Z,47.08
2023-05-18T10:23:26.726Z,47.15
2023-05-18T10:25:53.274Z,47.67
2023-05-18T10:28:19.839Z,47.35
2023-05-18T10:30:46.432Z,47.87
2023-05-18T10:33:24.700Z,50.32
2023-05-18T10:35:55.373Z,51.30
2023-05-18T10:38:21.905Z,50.38
2023-05-18T10:40:48.426Z,50.60
2023-05-18T10:43:17.384Z,50.17
2023-05-18T10:45:45.615Z,49.27
2023-05-18T10:48:12.137Z,49.41
2023-05-18T10:50:38.701Z,49.23
2023-05-18T10:53:05.185Z,49.12
2023-05-18T10:55:31.735Z,48.47
2023-05-18T10:57:58.228Z,49.20
2023-05-18T11:00:24.730Z,48.85
2023-05-18T11:02:51.349Z,49.78
2023-05-18T11:05:21.128Z,49.56
2023-05-18T11:07:47.724Z,50.25
2023-05-18T11:10:14.275Z,50.22
2023-05-18T11:12:40.719Z,49.51
2023-05-18T11:15:10.300Z,47.34
2023-05-18T11:17:36.850Z,44.53
2023-05-18T11:20:03.353Z,42.29
2023-05-18T11:22:29.955Z,44.39
2023-05-18T11:24:56.579Z,44.96
2023-05-18T11:27:23.042Z,44.64
2023-05-18T11:29:51.889Z,45.10
2023-05-18T11:32:29.374Z,44.66
2023-05-18T11:34:57.281Z,44.86
2023-05-18T11:37:23.912Z,44.82
2023-05-18T11:39:58.534Z,45.07
2023-05-18T11:42:27.150Z,45.00
2023-05-18T11:44:53.656Z,45.03
2023-05-18T11:47:20.248Z,45.06
2023-05-18T11:49:46.853Z,44.77
2023-05-18T11:52:13.375Z,44.75
2023-05-18T11:54:39.900Z,44.94
2023-05-18T11:57:06.456Z,44.84
2023-05-18T11:59:32.947Z,44.42
2023-05-18T12:01:59.468Z,44.32
2023-05-18T12:04:26.052Z,44.27
2023-05-18T12:06:52.650Z,44.73
2023-05-18T12:09:19.190Z,44.67
2023-05-18T12:11:45.652Z,44.71
2023-05-18T12:14:12.203Z,45.41
2023-05-18T12:16:38.760Z,45.27
2023-05-18T12:19:05.472Z,44.97
2023-05-18T12:21:31.969Z,45.53
2023-05-18T12:23:58.431Z,46.16
2023-05-18T12:26:24.966Z,46.53
2023-05-18T12:28:51.634Z,46.45
2023-05-18T12:31:18.194Z,46.32
2023-05-18T12:33:44.731Z,46.30
2023-05-18T12:36:11.219Z,46.61
2023-05-18T12:38:37.667Z,46.41
2023-05-18T12:41:04.202Z,46.62
2023-05-18T12:43:30.745Z,46.60
2023-05-18T12:45:57.242Z,46.41
2023-05-18T12:48:23.792Z,46.45
2023-05-18T12:50:53.410Z,45.90
2023-05-18T12:53:20.006Z,46.04
2023-05-18T12:55:46.508Z,45.86
2023-05-18T12:58:12.983Z,45.96
2023-05-18T13:00:39.529Z,45.77
2023-05-18T13:03:06.076Z,46.13
2023-05-18T13:05:32.803Z,46.06
2023-05-18T13:07:59.407Z,46.36
2023-05-18T13:10:25.891Z,46.73
2023-05-18T13:12:52.464Z,46.46
2023-05-18T13:15:19.004Z,47.05
2023-05-18T13:17:45.474Z,48.26
2023-05-18T13:20:11.954Z,49.90
2023-05-18T13:22:38.400Z,49.63
2023-05-18T13:25:04.973Z,49.37
2023-05-18T13:27:31.504Z,49.73
2023-05-18T13:29:58.000Z,50.14
2023-05-18T13:32:24.543Z,50.74
2023-05-18T13:34:51.096Z,51.01
2023-05-18T13:37:17.585Z,50.93
2023-05-18T13:39:44.136Z,51.01
2023-05-18T13:42:10.684Z,50.95
2023-05-18T13:44:37.254Z,50.57
2023-05-18T13:47:03.847Z,50.81
2023-05-18T13:49:30.377Z,50.09
2023-05-18T13:51:56.906Z,50.20
2023-05-18T13:54:23.463Z,49.70
2023-05-18T13:56:50.070Z,49.57
2023-05-18T13:59:16.546Z,49.76
2023-05-18T14:01:43.129Z,49.81
2023-05-18T14:04:09.688Z,50.20
2023-05-18T14:06:36.214Z,49.61
2023-05-18T14:09:02.846Z,49.41
2023-05-18T14:11:29.481Z,43.98
2023-05-18T14:13:56.001Z,37.53
2023-05-18T14:16:22.621Z,37.45
2023-05-18T14:18:49.288Z,36.40
2023-05-18T14:21:15.857Z,35.63
2023-05-18T14:23:42.436Z,35.39
2023-05-18T14:26:09.054Z,35.13
2023-05-18T14:28:35.592Z,35.85
2023-05-18T14:31:02.210Z,34.73
2023-05-18T14:33:28.817Z,34.29
2023-05-18T14:35:55.367Z,34.30
2023-05-18T14:38:24.701Z,34.95
2023-05-18T14:40:53.932Z,34.90
2023-05-18T14:43:20.405Z,35.08
2023-05-18T14:45:56.548Z,34.65
2023-05-18T14:48:27.038Z,33.72
2023-05-18T14:50:53.559Z,33.16
2023-05-18T14:53:23.069Z,33.34
2023-05-18T14:55:49.651Z,34.11
2023-05-18T15:00:42.776Z,34.00
2023-05-18T15:03:09.552Z,34.34
2023-05-18T15:05:36.043Z,34.82
2023-05-18T15:08:02.567Z,34.53
2023-05-18T15:10:29.293Z,31.70
2023-05-18T15:12:56.109Z,32.24
2023-05-18T15:15:24.696Z,30.21
2023-05-18T15:17:52.563Z,29.93
2023-05-18T15:20:19.048Z,30.83
2023-05-18T15:22:45.694Z,30.93
2023-05-18T15:25:12.215Z,32.01
2023-05-18T15:27:38.746Z,32.54
2023-05-18T15:30:05.405Z,33.28
2023-05-18T15:32:32.024Z,33.63
2023-05-18T15:34:58.579Z,32.94
2023-05-18T15:37:29.377Z,31.64
2023-05-18T15:39:56.535Z,31.12
2023-05-18T15:42:23.102Z,29.92
2023-05-18T15:44:49.618Z,30.25
2023-05-18T15:47:16.119Z,30.05
2023-05-18T15:49:42.663Z,31.72
2023-05-18T15:52:09.336Z,30.81
2023-05-18T15:54:37.126Z,30.83
2023-05-18T15:57:03.660Z,31.08
2023-05-18T15:59:30.273Z,31.63
2023-05-18T16:01:56.832Z,32.42
2023-05-18T16:04:23.376Z,32.53
2023-05-18T16:06:49.975Z,33.10
2023-05-18T16:09:16.497Z,33.72
2023-05-18T16:11:42.987Z,33.99
2023-05-18T16:14:09.602Z,34.27
2023-05-18T16:16:36.302Z,34.00
2023-05-18T16:19:03.020Z,32.93
2023-05-18T16:21:29.651Z,32.85
2023-05-18T16:23:56.269Z,32.29
2023-05-18T16:26:22.872Z,34.13
2023-05-18T16:28:49.560Z,34.69
2023-05-18T16:31:16.178Z,34.97
2023-05-18T16:33:42.919Z,35.77
2023-05-18T16:36:09.545Z,36.33
2023-05-18T16:38:36.172Z,36.81
2023-05-18T16:41:02.762Z,36.99
2023-05-18T16:43:29.286Z,37.20
2023-05-18T16:45:55.859Z,37.54
2023-05-18T16:48:22.486Z,37.68
2023-05-18T16:50:49.146Z,37.86
2023-05-18T16:53:18.810Z,37.97
2023-05-18T16:55:45.401Z,38.19
2023-05-18T16:58:12.025Z,38.57
2023-05-18T17:00:38.623Z,38.47
2023-05-18T17:03:05.494Z,38.79
2023-05-18T17:05:32.207Z,39.13
2023-05-18T17:07:58.772Z,39.43
2023-05-18T17:10:25.319Z,39.25
2023-05-18T17:12:51.922Z,39.69
2023-05-18T17:15:18.456Z,39.54
2023-05-18T17:17:45.084Z,39.77
2023-05-18T17:20:11.717Z,39.87
2023-05-18T17:22:38.259Z,40.01
2023-05-18T17:25:04.810Z,40.15
2023-05-18T17:27:31.388Z,40.26
2023-05-18T17:29:58.005Z,40.16
2023-05-18T17:32:24.561Z,40.44
2023-05-18T17:34:51.196Z,40.40
2023-05-18T17:37:18.250Z,40.66
2023-05-18T17:39:44.759Z,40.50
2023-05-18T17:42:11.291Z,40.92
2023-05-18T17:44:37.825Z,40.56
2023-05-18T17:47:04.395Z,40.79
2023-05-18T17:49:31.108Z,40.71
2023-05-18T17:51:57.690Z,40.94
2023-05-18T17:54:24.214Z,40.92
2023-05-18T17:56:50.842Z,41.06
2023-05-18T17:59:17.449Z,41.02
2023-05-18T18:01:44.118Z,41.44
2023-05-18T18:04:10.767Z,41.25
2023-05-18T18:06:37.365Z,41.43
2023-05-18T18:09:04.034Z,41.65
2023-05-18T18:11:30.665Z,41.69
2023-05-18T18:13:57.275Z,41.71
2023-05-18T18:16:23.826Z,41.57
2023-05-18T18:18:50.508Z,41.44
2023-05-18T18:21:17.110Z,41.38
2023-05-18T18:23:43.759Z,41.45
2023-05-18T18:26:10.313Z,41.84
2023-05-18T18:28:36.883Z,41.59
2023-05-18T18:31:03.507Z,41.72
2023-05-18T18:33:30.148Z,42.26
2023-05-18T18:35:56.740Z,41.83
2023-05-18T18:38:23.313Z,41.86
2023-05-18T18:40:49.870Z,41.90
2023-05-18T18:43:16.414Z,41.93
2023-05-18T18:45:43.036Z,42.13
2023-05-18T18:48:09.691Z,41.92
2023-05-18T18:50:37.420Z,42.28
2023-05-18T18:53:04.004Z,42.19
2023-05-18T18:55:30.846Z,42.27
2023-05-18T18:57:57.564Z,42.48
2023-05-18T19:00:24.170Z,42.46
2023-05-18T19:02:50.716Z,42.48
2023-05-18T19:05:17.389Z,42.35
2023-05-18T19:07:44.077Z,42.60
2023-05-18T19:10:10.695Z,42.36
2023-05-18T19:12:37.211Z,42.62
2023-05-18T19:15:03.813Z,42.41
2023-05-18T19:17:30.470Z,42.55
2023-05-18T19:19:57.064Z,42.60
2023-05-18T19:22:23.610Z,42.49
2023-05-18T19:24:50.160Z,42.29
2023-05-18T19:27:16.704Z,42.46
2023-05-18T19:29:43.261Z,42.70
2023-05-18T19:32:09.857Z,42.76
2023-05-18T19:34:36.424Z,42.44
2023-05-18T19:37:03.030Z,42.34
2023-05-18T19:39:29.661Z,42.59
2023-05-18T19:41:56.246Z,42.35
2023-05-18T19:44:22.838Z,42.62
2023-05-18T19:46:49.415Z,42.71
2023-05-18T19:49:16.028Z,42.53
2023-05-18T19:51:42.653Z,42.67
2023-05-18T19:54:09.251Z,43.01
2023-05-18T19:56:35.861Z,42.57
2023-05-18T19:59:02.459Z,42.83
2023-05-18T20:01:29.077Z,42.63
2023-05-18T20:03:55.780Z,42.79
2023-05-18T20:06:22.350Z,42.98
2023-05-18T20:08:48.977Z,42.66
2023-05-18T20:11:15.544Z,42.92
2023-05-18T20:13:42.209Z,42.84
2023-05-18T20:16:08.818Z,42.76
2023-05-18T20:18:35.468Z,42.62
2023-05-18T20:21:02.077Z,42.39
2023-05-18T20:23:28.657Z,42.43
2023-05-18T20:25:55.228Z,42.69
2023-05-18T20:28:21.861Z,42.29
2023-05-18T20:30:48.457Z,42.64
2023-05-18T20:33:15.025Z,42.63
2023-05-18T20:35:41.543Z,42.37
2023-05-18T20:38:08.055Z,42.43
2023-05-18T20:40:34.746Z,42.82
2023-05-18T20:43:01.456Z,42.79
2023-05-18T20:45:28.041Z,42.93
2023-05-18T20:47:54.613Z,42.63
2023-05-18T20:50:21.207Z,42.97
2023-05-18T20:52:47.797Z,43.27
2023-05-18T20:55:14.403Z,43.10
2023-05-18T20:57:40.915Z,43.19
2023-05-18T21:00:07.484Z,43.28
2023-05-18T21:02:34.138Z,43.31
2023-05-18T21:05:00.755Z,43.37
2023-05-18T21:07:27.337Z,43.30
2023-05-18T21:09:53.850Z,43.51
2023-05-18T21:12:20.444Z,43.36
2023-05-18T21:14:47.013Z,43.27
2023-05-18T21:17:13.608Z,43.21
2023-05-18T21:19:40.177Z,43.24
2023-05-18T21:22:06.709Z,43.51
2023-05-18T21:24:33.321Z,43.64
2023-05-18T21:26:59.927Z,43.36
2023-05-18T21:29:26.618Z,43.32
2023-05-18T21:31:53.245Z,43.57
2023-05-18T21:36:46.434Z,43.54
2023-05-18T21:39:16.083Z,44.13
2023-05-18T21:41:42.688Z,43.92
2023-05-18T21:44:09.260Z,43.53
2023-05-18T21:46:35.821Z,43.46
2023-05-18T21:49:02.459Z,43.76
2023-05-18T21:51:29.001Z,43.57
2023-05-18T21:53:55.482Z,43.84
2023-05-18T21:56:22.057Z,43.59
2023-05-18T21:58:48.621Z,43.67
2023-05-18T22:01:15.215Z,43.68
2023-05-18T22:03:41.771Z,43.68
2023-05-18T22:06:08.304Z,43.69
2023-05-18T22:08:34.993Z,43.65
2023-05-18T22:11:01.706Z,43.75
2023-05-18T22:13:28.242Z,43.64
2023-05-18T22:15:54.766Z,43.79
2023-05-18T22:18:21.396Z,44.04
2023-05-18T22:20:47.939Z,43.95
2023-05-18T22:23:14.461Z,43.64
2023-05-18T22:25:41.018Z,43.61
2023-05-18T22:28:07.595Z,43.51
2023-05-18T22:30:36.938Z,43.82
2023-05-18T22:33:03.570Z,43.50
2023-05-18T22:35:30.259Z,43.88
2023-05-18T22:37:56.709Z,43.57
2023-05-18T22:40:23.189Z,43.63
2023-05-18T22:42:49.712Z,43.62
2023-05-18T22:45:16.317Z,43.98
2023-05-18T22:47:42.902Z,43.43
2023-05-18T22:50:09.394Z,43.84
2023-05-18T22:52:35.886Z,43.74
2023-05-18T22:55:02.399Z,43.59
2023-05-18T22:57:28.926Z,43.83
2023-05-18T22:59:55.374Z,44.01
2023-05-18T23:02:21.930Z,43.62
2023-05-18T23:04:48.492Z,43.87
2023-05-18T23:07:15.142Z,43.92
2023-05-18T23:09:41.639Z,43.93
2023-05-18T23:12:08.119Z,43.82
2023-05-18T23:14:34.589Z,43.86
2023-05-18T23:17:04.044Z,43.70
2023-05-18T23:19:30.510Z,43.78
2023-05-18T23:21:56.998Z,43.80
2023-05-18T23:24:23.487Z,43.63
2023-05-18T23:26:53.076Z,43.67
2023-05-18T23:29:19.578Z,43.75
2023-05-18T23:31:46.149Z,44.02
2023-05-18T23:34:12.720Z,43.72
2023-05-18T23:36:39.266Z,43.84
2023-05-18T23:39:05.760Z,44.04
2023-05-18T23:41:32.278Z,43.74
2023-05-18T23:43:58.828Z,43.77
2023-05-18T23:46:25.526Z,43.91
2023-05-18T23:48:52.065Z,43.81
2023-05-18T23:51:18.519Z,43.86
2023-05-18T23:53:45.072Z,44.18
2023-05-18T23:56:11.650Z,43.89
2023-05-18T23:58:38.237Z,43.69
